Главная страница
METAR-TAF:

METAR-TAF

Аэропорты :

Мариехамн, Финляндия

широта: 60-07N, долгота: 019-54E, высота над уровнем моря: 6 м

Текущие метеонаблюдения

Эта сводка был подготовлена 18 минут назад, в 20:50 UTC
Ветер 11 Узел от южный
Температура 12°C
Влажность 82%
Давление 1012 hPa
Видимость 10 км и более
Нет облачности ниже 1500 м, и нет кучево-дождевой облачности

METAR: EFMA 132050Z AUTO 18011KT CAVOK 12/09 Q1012

Время: 00:08 (21:08 UTC)

Прогноз

Эта сводка был подготовлена 3 часа и 46 минут назад, в 17:22 UTC
Прогноз действительный с 13-го 18 UTC до 14-го 03 UTC
Ветер 13 Узел от южный
Видимость 10 км и более
Нет облачности ниже 1500 м, и нет кучево-дождевой облачности
изменения
С 14-го 00 UTC до 14-го 02 UTC
Ветер 3 Узел от южный

TAF: EFMA 131722Z 1318/1403 19013KT CAVOK BECMG 1400/1402 19003KT

Метеонаблюдения и прогнозы для более 4000 аэропортов (сводки METAR и TAF).

Имеющиеся станции представлены на карте желтыми и красными точками.

Чтобы увидеть название станции, наведите на нее мышь.

Затем щелкните, чтобы увидеть метеонаблюдения и метеопрогнозы.

Управление картой: чтобы увеличить масштаб, щелкните зеленые кнопки с черным крестиком; чтобы уменьшить масштаб, щелкните зеленую кнопку с тире; для просмотра соседних карт щелкайте зеленые стрелки.


METAR-TAF: